createdAt,value
2023-05-21T10:25:35.932Z,28.00
2023-05-21T10:28:25.570Z,28.00
2023-05-21T10:31:24.828Z,28.10
2023-05-21T10:34:14.996Z,28.10
2023-05-21T10:37:05.538Z,28.10
2023-05-21T10:39:43.782Z,28.10
2023-05-21T10:42:36.803Z,28.30
2023-05-21T10:45:25.688Z,28.30
2023-05-21T10:48:43.243Z,28.50
2023-05-21T10:56:02.288Z,28.60
2023-05-21T10:58:48.513Z,28.60
2023-05-21T11:01:19.274Z,28.60
2023-05-21T11:03:48.624Z,28.70
2023-05-21T11:06:26.574Z,28.90
2023-05-21T11:08:55.728Z,29.10
2023-05-21T11:11:43.725Z,29.30
2023-05-21T11:14:36.729Z,29.40
2023-05-21T11:17:13.980Z,29.40
2023-05-21T11:19:48.804Z,29.70
2023-05-21T11:22:26.997Z,29.70
2023-05-21T11:24:55.840Z,29.70
2023-05-21T11:27:35.901Z,29.30
2023-05-21T11:30:08.750Z,29.30
2023-05-21T11:33:08.102Z,29.50
2023-05-21T11:35:54.325Z,29.60
2023-05-21T11:38:21.769Z,29.70
2023-05-21T11:40:56.459Z,29.70
2023-05-21T11:43:23.786Z,29.60
2023-05-21T11:45:53.006Z,29.70
2023-05-21T11:48:26.716Z,29.60
2023-05-21T11:50:55.034Z,29.70
2023-05-21T11:53:22.413Z,30.00
2023-05-21T11:55:57.723Z,30.30
2023-05-21T11:58:25.198Z,30.60
2023-05-21T12:00:52.868Z,30.80
2023-05-21T12:03:26.730Z,31.10
2023-05-21T12:05:54.685Z,31.30
2023-05-21T12:08:26.975Z,31.50
2023-05-21T12:10:59.818Z,31.60
2023-05-21T12:13:28.003Z,31.80
2023-05-21T12:15:55.234Z,31.80
2023-05-21T12:18:22.723Z,31.70
2023-05-21T12:20:53.118Z,31.70
2023-05-21T12:23:31.524Z,31.50
2023-05-21T12:25:59.499Z,31.40
2023-05-21T12:28:27.178Z,31.20
2023-05-21T12:30:57.717Z,31.20
2023-05-21T12:33:36.651Z,31.10
2023-05-21T12:36:11.831Z,31.10
2023-05-21T12:38:49.011Z,31.10
2023-05-21T12:41:30.049Z,31.10
2023-05-21T12:44:17.432Z,31.20
2023-05-21T12:47:08.852Z,31.00
2023-05-21T12:49:55.679Z,31.10
2023-05-21T12:52:30.260Z,31.10
2023-05-21T12:55:05.779Z,31.00
2023-05-21T12:57:39.736Z,31.10
2023-05-21T13:00:11.623Z,31.20
2023-05-21T13:02:41.473Z,31.30
2023-05-21T13:05:19.413Z,31.30
2023-05-21T13:07:47.614Z,31.40
2023-05-21T13:10:17.127Z,31.50
2023-05-21T13:12:45.099Z,31.50
2023-05-21T13:15:12.690Z,31.50
2023-05-21T13:17:40.122Z,31.60
2023-05-21T13:20:12.720Z,31.70
2023-05-21T13:22:46.700Z,31.80
2023-05-21T13:25:16.354Z,32.10
2023-05-21T13:27:44.391Z,32.30
2023-05-21T13:30:12.224Z,32.70
2023-05-21T13:32:40.971Z,33.10
2023-05-21T13:35:09.976Z,33.60
2023-05-21T13:37:38.591Z,33.80
2023-05-21T13:40:11.592Z,33.90
2023-05-21T13:42:39.145Z,34.10
2023-05-21T13:45:12.508Z,34.30
2023-05-21T13:47:41.269Z,34.60
2023-05-21T13:50:09.703Z,34.90
2023-05-21T13:52:37.888Z,35.20
2023-05-21T13:55:06.106Z,35.30
2023-05-21T13:57:33.939Z,35.40
2023-05-21T14:00:01.908Z,35.30
2023-05-21T14:02:35.164Z,35.10
2023-05-21T14:05:02.593Z,34.50
2023-05-21T14:07:30.041Z,33.90
2023-05-21T14:09:57.445Z,34.00
2023-05-21T14:12:26.884Z,34.40
2023-05-21T14:14:54.465Z,34.50
2023-05-21T14:17:21.802Z,34.50
2023-05-21T14:19:49.296Z,34.00
2023-05-21T14:22:16.608Z,33.70
2023-05-21T14:24:43.888Z,33.30
2023-05-21T14:27:15.159Z,33.10
2023-05-21T14:29:42.884Z,32.90
2023-05-21T14:32:10.257Z,32.80
2023-05-21T14:34:38.579Z,33.20
2023-05-21T14:37:06.166Z,33.50
2023-05-21T14:39:33.616Z,33.60
2023-05-21T14:42:03.637Z,34.00
2023-05-21T14:44:32.218Z,34.10
2023-05-21T14:46:59.971Z,34.40
2023-05-21T14:49:27.358Z,34.70
2023-05-21T14:51:54.784Z,34.60
2023-05-21T14:54:22.263Z,34.80
2023-05-21T14:56:49.587Z,35.00
2023-05-21T14:59:16.862Z,35.20
2023-05-21T15:01:44.401Z,35.60
2023-05-21T15:04:12.030Z,36.00
2023-05-21T15:06:39.427Z,36.30
2023-05-21T15:09:06.700Z,36.60
2023-05-21T15:11:34.355Z,36.60
2023-05-21T15:14:01.819Z,36.40
2023-05-21T15:16:29.171Z,36.00
2023-05-21T15:18:56.818Z,35.60
2023-05-21T15:21:26.525Z,35.30
2023-05-21T15:23:55.461Z,35.10
2023-05-21T15:26:25.269Z,34.80
2023-05-21T15:28:52.829Z,34.70
2023-05-21T15:31:20.269Z,34.50
2023-05-21T15:33:47.631Z,34.30
2023-05-21T15:36:15.125Z,34.40
2023-05-21T15:38:42.436Z,34.50
2023-05-21T15:41:09.736Z,34.60
2023-05-21T15:43:37.296Z,34.70
2023-05-21T15:46:04.922Z,34.90
2023-05-21T15:48:32.569Z,34.90
2023-05-21T15:50:59.972Z,34.70
2023-05-21T15:53:27.270Z,34.10
2023-05-21T15:55:54.657Z,33.60
2023-05-21T15:58:21.936Z,33.20
2023-05-21T16:00:49.370Z,32.80
2023-05-21T16:03:16.910Z,32.60
2023-05-21T16:05:44.289Z,32.80
2023-05-21T16:08:12.206Z,33.10
2023-05-21T16:10:39.998Z,33.40
2023-05-21T16:13:07.365Z,33.60
2023-05-21T16:15:34.740Z,33.90
2023-05-21T16:18:02.392Z,34.00
2023-05-21T16:20:30.811Z,34.00
2023-05-21T16:22:58.096Z,33.90
2023-05-21T16:25:25.482Z,33.60
2023-05-21T16:27:52.781Z,33.40
2023-05-21T16:30:20.374Z,33.00
2023-05-21T16:32:47.684Z,32.60
2023-05-21T16:35:15.037Z,32.60
2023-05-21T16:37:42.333Z,32.40
2023-05-21T16:40:10.179Z,32.10
2023-05-21T16:42:38.560Z,31.80
2023-05-21T16:45:06.846Z,31.40
2023-05-21T16:47:34.192Z,31.00
2023-05-21T16:50:01.760Z,30.70
2023-05-21T16:52:29.089Z,30.50
2023-05-21T16:54:56.610Z,30.10
2023-05-21T16:57:24.005Z,30.00
2023-05-21T16:59:51.314Z,29.90
2023-05-21T17:02:18.805Z,29.70
2023-05-21T17:04:46.517Z,29.60
2023-05-21T17:07:15.881Z,29.50
2023-05-21T17:09:43.238Z,29.40
2023-05-21T17:12:10.691Z,29.20
2023-05-21T17:14:39.719Z,29.10
2023-05-21T17:17:07.715Z,29.00
2023-05-21T17:19:35.290Z,28.80
2023-05-21T17:22:03.114Z,28.70
2023-05-21T17:24:31.047Z,28.60
2023-05-21T17:26:58.387Z,28.40
2023-05-21T17:29:26.236Z,28.30
2023-05-21T17:31:53.767Z,28.30
2023-05-21T17:34:21.276Z,28.40
2023-05-21T17:36:48.641Z,28.40
2023-05-21T17:39:16.042Z,28.50
2023-05-21T17:41:43.448Z,28.50
2023-05-21T17:44:11.605Z,28.40
2023-05-21T17:46:39.132Z,28.30
2023-05-21T17:49:08.301Z,28.10
2023-05-21T17:51:36.734Z,28.00
2023-05-21T17:54:04.661Z,27.90
2023-05-21T17:56:38.840Z,27.80
2023-05-21T17:59:07.065Z,27.70
2023-05-21T18:01:36.389Z,27.60
2023-05-21T18:04:06.215Z,27.50
2023-05-21T18:06:34.370Z,27.50
2023-05-21T18:09:02.139Z,27.30
2023-05-21T18:11:30.356Z,27.30
2023-05-21T18:13:57.669Z,27.00
2023-05-21T18:16:24.954Z,26.90
2023-05-21T18:18:52.282Z,26.70
2023-05-21T18:21:19.598Z,26.50
2023-05-21T18:23:46.932Z,26.40
2023-05-21T18:26:14.908Z,26.20
2023-05-21T18:28:42.327Z,26.10
2023-05-21T18:31:09.703Z,26.10
2023-05-21T18:33:38.321Z,25.70
2023-05-21T18:36:05.984Z,25.60
2023-05-21T18:38:33.740Z,25.40
2023-05-21T18:41:03.284Z,25.30
2023-05-21T18:43:30.864Z,25.20
2023-05-21T18:45:58.189Z,25.10
2023-05-21T18:48:25.586Z,25.00
2023-05-21T18:50:52.941Z,25.00
2023-05-21T18:53:20.795Z,24.90
2023-05-21T18:55:48.242Z,24.90
2023-05-21T18:58:16.595Z,24.90
2023-05-21T19:00:44.083Z,24.90
2023-05-21T19:03:11.431Z,24.80
2023-05-21T19:05:38.986Z,24.80
2023-05-21T19:08:06.445Z,24.70
2023-05-21T19:10:33.976Z,24.50
2023-05-21T19:13:02.038Z,24.40
2023-05-21T19:15:32.182Z,24.40
2023-05-21T19:18:01.145Z,24.30
2023-05-21T19:20:28.552Z,24.20
2023-05-21T19:22:56.100Z,24.10
2023-05-21T19:25:23.869Z,24.10
2023-05-21T19:27:52.736Z,24.00
2023-05-21T19:30:19.981Z,24.00
2023-05-21T19:32:47.697Z,24.00
2023-05-21T19:35:17.012Z,23.90
2023-05-21T19:37:44.276Z,23.70
2023-05-21T19:40:11.888Z,23.70
2023-05-21T19:42:42.430Z,23.60
2023-05-21T19:45:14.962Z,23.60
2023-05-21T19:47:43.559Z,23.50
2023-05-21T19:50:11.771Z,23.50
2023-05-21T19:52:39.386Z,23.50
2023-05-21T19:55:08.694Z,23.40
2023-05-21T19:57:36.214Z,23.30
2023-05-21T20:00:05.895Z,23.30
2023-05-21T20:02:40.892Z,23.20
2023-05-21T20:05:09.149Z,23.10
2023-05-21T20:07:36.408Z,23.10
2023-05-21T20:10:03.863Z,23.00
2023-05-21T20:12:31.113Z,23.00
2023-05-21T20:14:59.647Z,23.00
2023-05-21T20:17:28.672Z,22.90
2023-05-21T20:19:57.344Z,22.80
2023-05-21T20:22:24.543Z,22.80
2023-05-21T20:24:51.737Z,22.80
2023-05-21T20:27:19.386Z,22.80
2023-05-21T20:29:46.826Z,22.70
2023-05-21T20:32:14.528Z,22.60
2023-05-21T20:34:50.711Z,22.50
2023-05-21T20:37:32.481Z,22.40
2023-05-21T20:40:02.044Z,22.40
2023-05-21T20:42:35.183Z,22.30
2023-05-21T20:45:05.224Z,22.20
2023-05-21T20:47:33.850Z,22.20
2023-05-21T20:50:03.728Z,22.20
2023-05-21T20:52:31.215Z,22.20
2023-05-21T20:54:59.613Z,22.10
2023-05-21T20:57:28.301Z,22.10
2023-05-21T20:59:56.242Z,22.10
2023-05-21T21:02:23.575Z,22.00
2023-05-21T21:04:51.130Z,22.00
2023-05-21T21:07:19.134Z,22.00
2023-05-21T21:09:47.253Z,22.00
2023-05-21T21:12:25.309Z,21.90
2023-05-21T21:14:54.488Z,21.80
2023-05-21T21:17:21.980Z,21.80
2023-05-21T21:19:49.454Z,21.80
2023-05-21T21:22:18.305Z,21.70
2023-05-21T21:24:46.244Z,21.60
2023-05-21T21:27:14.016Z,21.60
2023-05-21T21:29:41.808Z,21.60
2023-05-21T21:32:09.326Z,21.50
2023-05-21T21:34:36.804Z,21.40
2023-05-21T21:37:04.433Z,21.40
2023-05-21T21:39:31.670Z,21.40
2023-05-21T21:41:59.224Z,21.30
2023-05-21T21:44:26.895Z,21.20
2023-05-21T21:46:54.867Z,21.20
2023-05-21T21:49:23.228Z,21.20
2023-05-21T21:51:57.814Z,21.20
2023-05-21T21:54:25.644Z,21.20
2023-05-21T21:56:53.128Z,21.10
2023-05-21T21:59:20.927Z,21.10
2023-05-21T22:01:49.143Z,21.10
2023-05-21T22:04:16.473Z,21.10
2023-05-21T22:06:45.397Z,21.00
2023-05-21T22:09:12.838Z,21.00
2023-05-21T22:11:40.863Z,20.90
2023-05-21T22:14:08.586Z,20.90
2023-05-21T22:16:36.580Z,20.90
2023-05-21T22:19:04.155Z,20.80
2023-05-21T22:21:33.016Z,20.70
2023-05-21T22:24:00.615Z,20.80
2023-05-21T22:26:27.868Z,20.80
2023-05-21T22:28:55.357Z,20.80
2023-05-21T22:31:22.747Z,20.80
2023-05-21T22:33:50.079Z,20.70
2023-05-21T22:36:17.361Z,20.60
2023-05-21T22:38:44.776Z,20.60
2023-05-21T22:41:12.118Z,20.60
2023-05-21T22:43:40.184Z,20.40
2023-05-21T22:46:09.077Z,20.40
2023-05-21T22:48:37.449Z,20.40
2023-05-21T22:51:05.520Z,20.30
2023-05-21T22:53:33.650Z,20.30
2023-05-21T22:56:02.995Z,20.20
2023-05-21T22:58:32.769Z,20.30
2023-05-21T23:01:00.058Z,20.30
2023-05-21T23:03:27.675Z,20.30
2023-05-21T23:05:54.921Z,20.20
2023-05-21T23:08:22.165Z,20.20
2023-05-21T23:10:49.698Z,20.10
2023-05-21T23:13:17.897Z,20.10
2023-05-21T23:15:45.721Z,20.10
2023-05-21T23:18:13.230Z,20.00
2023-05-21T23:20:41.172Z,20.00
2023-05-21T23:23:09.983Z,20.00
2023-05-21T23:25:37.441Z,20.00
2023-05-21T23:28:04.914Z,19.80
2023-05-21T23:30:32.206Z,19.80
2023-05-21T23:32:59.917Z,19.80
2023-05-21T23:35:27.244Z,19.80
2023-05-21T23:37:54.608Z,19.70
2023-05-21T23:40:21.965Z,19.70
2023-05-21T23:42:49.246Z,19.70
2023-05-21T23:45:17.819Z,19.70
2023-05-21T23:47:45.186Z,19.60
2023-05-21T23:50:12.592Z,19.60
2023-05-21T23:52:41.520Z,19.60
2023-05-21T23:55:11.672Z,19.50
2023-05-21T23:57:43.709Z,19.50
